Tapps Island, Washington
Current Conditions -  °F | °C
As of 12:44 PM on Saturday 25 Oct 2014 (Local Time) from KTCM Reporting Station
Broken Clouds Broken Clouds  
Wind Chill: 55°   Ceiling: 8000
Heat Index: 55°   Visibility: 10mi
Dew Point: 54°   Wind: 5mph
Humidity: 94%   Direction: 40°NE
Pressure: 29.36"   Gusts: NA
Location:  47.1874°N, 122.164°W
Report Text: KTCM 251944Z AUTO 04004KT 10SM FEW055 BKN080 13/12 A2936 RMK AO2
Loading
Personal Weather Stations






























Interactive Weather Map
Tropical Storm Tracking
New forecast layout! Learn more

10-Day Weather Forecast

Advertisements
Track Severe Weather on mobile